createdAt,value
2023-04-28T00:02:04.563Z,3.50
2023-04-28T00:04:32.075Z,3.80
2023-04-28T00:06:59.520Z,3.30
2023-04-28T00:09:26.905Z,3.33
2023-04-28T00:11:54.297Z,3.00
2023-04-28T00:14:21.662Z,3.43
2023-04-28T00:16:49.066Z,4.10
2023-04-28T00:19:16.526Z,3.20
2023-04-28T00:21:43.912Z,3.43
2023-04-28T00:24:11.288Z,3.43
2023-04-28T00:26:38.675Z,2.93
2023-04-28T00:29:06.081Z,3.13
2023-04-28T00:31:35.103Z,3.40
2023-04-28T00:34:02.493Z,3.17
2023-04-28T00:36:31.506Z,3.10
2023-04-28T00:38:59.260Z,3.17
2023-04-28T00:41:26.628Z,3.50
2023-04-28T00:43:54.020Z,3.67
2023-04-28T00:46:23.174Z,3.17
2023-04-28T00:48:50.710Z,3.73
2023-04-28T00:51:18.160Z,3.27
2023-04-28T00:53:45.741Z,3.70
2023-04-28T00:56:13.119Z,3.60
2023-04-28T00:58:41.224Z,3.30
2023-04-28T01:01:09.565Z,3.33
2023-04-28T01:03:38.104Z,3.73
2023-04-28T01:06:06.217Z,3.43
2023-04-28T01:08:34.480Z,3.70
2023-04-28T01:11:01.938Z,3.70
2023-04-28T01:13:29.700Z,3.83
2023-04-28T01:15:57.327Z,3.70
2023-04-28T01:18:24.997Z,4.10
2023-04-28T01:20:52.361Z,3.60
2023-04-28T01:23:19.866Z,3.73
2023-04-28T01:25:47.226Z,4.10
2023-04-28T01:28:14.602Z,3.43
2023-04-28T01:30:41.900Z,3.27
2023-04-28T01:33:09.347Z,4.40
2023-04-28T01:35:36.790Z,4.17
2023-04-28T01:38:04.181Z,3.70
2023-04-28T01:40:31.539Z,4.03
2023-04-28T01:42:58.915Z,3.90
2023-04-28T01:45:26.302Z,4.23
2023-04-28T01:47:53.702Z,5.50
2023-04-28T01:50:21.082Z,4.80
2023-04-28T01:52:48.460Z,4.10
2023-04-28T01:55:15.894Z,4.60
2023-04-28T01:57:43.301Z,5.00
2023-04-28T02:00:10.904Z,5.07
2023-04-28T02:02:38.338Z,4.23
2023-04-28T02:05:06.170Z,4.60
2023-04-28T02:07:33.588Z,4.63
2023-04-28T02:10:01.317Z,4.50
2023-04-28T02:12:28.632Z,4.60
2023-04-28T02:14:56.378Z,4.67
2023-04-28T02:17:23.753Z,5.40
2023-04-28T02:19:57.501Z,5.20
2023-04-28T02:22:25.207Z,5.00
2023-04-28T02:24:52.517Z,4.47
2023-04-28T02:27:20.548Z,5.13
2023-04-28T02:29:47.912Z,5.00
2023-04-28T02:32:15.316Z,4.97
2023-04-28T02:34:42.684Z,5.30
2023-04-28T02:37:10.150Z,5.57
2023-04-28T02:39:37.995Z,5.30
2023-04-28T02:42:05.344Z,5.67
2023-04-28T02:44:32.687Z,5.67
2023-04-28T02:47:01.688Z,5.00
2023-04-28T02:49:29.130Z,5.13
2023-04-28T02:51:56.627Z,4.80
2023-04-28T02:54:30.652Z,4.53
2023-04-28T02:56:58.402Z,5.47
2023-04-28T02:59:26.911Z,6.30
2023-04-28T03:01:54.315Z,5.43
2023-04-28T03:04:22.000Z,5.83
2023-04-28T03:06:49.608Z,5.40
2023-04-28T03:09:16.973Z,5.37
2023-04-28T03:11:44.433Z,4.53
2023-04-28T03:14:11.848Z,5.70
2023-04-28T03:16:39.320Z,5.20
2023-04-28T03:19:06.684Z,5.40
2023-04-28T03:21:34.075Z,6.87
2023-04-28T03:24:03.435Z,5.13
2023-04-28T03:26:30.502Z,5.63
2023-04-28T03:28:57.872Z,5.53
2023-04-28T03:31:25.600Z,5.27
2023-04-28T03:33:52.931Z,4.90
2023-04-28T03:36:20.322Z,5.40
2023-04-28T03:38:47.689Z,5.43
2023-04-28T03:41:15.013Z,5.80
2023-04-28T03:43:42.369Z,5.13
2023-04-28T03:46:09.773Z,5.60
2023-04-28T03:48:37.118Z,5.73
2023-04-28T03:51:04.510Z,5.70
2023-04-28T03:53:31.877Z,5.83
2023-04-28T03:55:59.248Z,5.43
2023-04-28T03:58:27.144Z,5.83
2023-04-28T04:00:54.514Z,5.57
2023-04-28T04:03:23.570Z,5.67
2023-04-28T04:05:51.171Z,6.03
2023-04-28T04:08:18.544Z,6.00
2023-04-28T04:10:45.912Z,5.57
2023-04-28T04:13:13.306Z,5.90
2023-04-28T04:15:40.882Z,5.90
2023-04-28T04:18:08.249Z,6.47
2023-04-28T04:20:35.648Z,5.80
2023-04-28T04:23:03.431Z,6.43
2023-04-28T04:25:32.052Z,7.90
2023-04-28T04:27:59.887Z,7.07
2023-04-28T04:30:27.644Z,7.20
2023-04-28T04:32:55.116Z,6.83
2023-04-28T04:35:22.523Z,6.10
2023-04-28T04:37:49.903Z,6.30
2023-04-28T04:40:17.270Z,6.50
2023-04-28T04:42:44.666Z,6.90
2023-04-28T04:45:12.109Z,7.87
2023-04-28T04:47:39.529Z,6.93
2023-04-28T04:50:07.555Z,7.00
2023-04-28T04:52:34.975Z,6.80
2023-04-28T04:55:02.308Z,6.90
2023-04-28T04:57:29.715Z,7.60
2023-04-28T04:59:57.094Z,7.93
2023-04-28T05:02:24.525Z,7.73
2023-04-28T05:04:52.142Z,7.63
2023-04-28T05:07:19.816Z,7.37
2023-04-28T05:09:47.191Z,7.80
2023-04-28T05:12:14.501Z,8.07
2023-04-28T05:14:41.884Z,7.53
2023-04-28T05:17:09.317Z,6.60
2023-04-28T05:19:36.694Z,6.40
2023-04-28T05:22:04.090Z,7.83
2023-04-28T05:24:31.738Z,7.60
2023-04-28T05:26:59.586Z,7.93
2023-04-28T05:29:27.022Z,8.40
2023-04-28T05:31:54.440Z,8.23
2023-04-28T05:34:21.798Z,9.60
2023-04-28T05:36:49.193Z,7.93
2023-04-28T05:39:16.727Z,10.40
2023-04-28T05:41:44.115Z,9.63
2023-04-28T05:44:17.643Z,8.47
2023-04-28T05:46:45.335Z,9.93
2023-04-28T05:49:12.778Z,10.07
2023-04-28T05:51:40.379Z,10.40
2023-04-28T05:54:07.737Z,8.63
2023-04-28T05:56:35.098Z,9.77
2023-04-28T05:59:04.363Z,10.90
2023-04-28T06:01:32.125Z,10.90
2023-04-28T06:03:59.788Z,10.60
2023-04-28T06:06:27.626Z,13.10
2023-04-28T06:08:54.999Z,12.43
2023-04-28T06:11:22.843Z,11.57
2023-04-28T06:13:50.785Z,12.50
2023-04-28T06:16:18.771Z,13.00
2023-04-28T06:18:47.336Z,10.93
2023-04-28T06:21:15.450Z,14.67
2023-04-28T06:23:42.840Z,13.17
2023-04-28T06:26:10.337Z,13.50
2023-04-28T06:28:37.744Z,14.80
2023-04-28T06:31:05.128Z,15.30
2023-04-28T06:33:32.579Z,14.73
2023-04-28T06:35:59.930Z,11.30
2023-04-28T06:38:27.339Z,14.00
2023-04-28T06:40:54.709Z,12.47
2023-04-28T06:43:22.084Z,13.50
2023-04-28T06:45:49.462Z,16.57
2023-04-28T06:48:17.133Z,13.67
2023-04-28T06:50:44.496Z,13.57
2023-04-28T06:53:11.875Z,12.10
2023-04-28T06:55:39.239Z,14.70
2023-04-28T06:58:06.633Z,13.23
2023-04-28T07:00:34.433Z,16.00
2023-04-28T07:03:02.011Z,15.00
2023-04-28T07:05:29.503Z,15.50
2023-04-28T07:07:56.811Z,18.57
2023-04-28T07:10:24.249Z,16.47
2023-04-28T07:12:54.259Z,16.80
2023-04-28T07:15:21.606Z,15.43
2023-04-28T07:17:49.029Z,17.93
2023-04-28T07:20:16.394Z,19.60
2023-04-28T07:22:43.841Z,20.40
2023-04-28T07:25:11.293Z,16.90
2023-04-28T07:27:38.679Z,14.30
2023-04-28T07:30:15.228Z,13.20
2023-04-28T07:32:35.497Z,13.67
2023-04-28T07:35:02.837Z,15.83
2023-04-28T07:37:31.240Z,14.17
2023-04-28T07:39:59.568Z,14.27
2023-04-28T07:42:27.223Z,12.93
2023-04-28T07:44:54.630Z,11.60
2023-04-28T07:47:22.065Z,12.90
2023-04-28T07:49:49.468Z,11.37
2023-04-28T07:52:16.825Z,11.87
2023-04-28T07:54:44.143Z,11.80
2023-04-28T07:57:11.546Z,13.30
2023-04-28T07:59:39.052Z,13.10
2023-04-28T08:02:07.679Z,14.90
2023-04-28T08:04:37.783Z,14.07
2023-04-28T08:07:05.401Z,17.20
2023-04-28T08:09:33.087Z,13.90
2023-04-28T08:12:00.618Z,14.70
2023-04-28T08:14:28.467Z,16.40
2023-04-28T08:16:55.841Z,16.37
2023-04-28T08:19:23.143Z,14.37
2023-04-28T08:21:50.925Z,15.10
2023-04-28T08:24:18.596Z,15.90
2023-04-28T08:26:46.065Z,16.80
2023-04-28T08:29:13.636Z,15.57
2023-04-28T08:31:41.157Z,14.10
2023-04-28T08:34:08.513Z,15.50
2023-04-28T08:36:35.885Z,15.23
2023-04-28T08:39:03.947Z,16.80
2023-04-28T08:41:32.840Z,14.30
2023-04-28T08:44:00.259Z,15.73
2023-04-28T08:46:28.907Z,14.70
2023-04-28T08:48:57.838Z,15.73
2023-04-28T08:51:32.841Z,13.03
2023-04-28T08:56:30.803Z,14.40
2023-04-28T08:58:59.171Z,14.63
2023-04-28T09:01:26.593Z,15.33
2023-04-28T09:03:55.198Z,17.00
2023-04-28T09:06:22.922Z,14.20
2023-04-28T09:08:50.334Z,13.67
2023-04-28T09:11:17.753Z,12.27
2023-04-28T09:13:45.507Z,13.33
2023-04-28T09:16:12.903Z,12.10
2023-04-28T09:18:40.813Z,11.90
2023-04-28T09:21:09.169Z,10.77
2023-04-28T09:23:38.086Z,10.57
2023-04-28T09:26:06.486Z,9.93
2023-04-28T09:28:34.577Z,9.80
2023-04-28T09:31:02.328Z,8.17
2023-04-28T09:33:30.209Z,8.60
2023-04-28T09:35:57.622Z,7.37
2023-04-28T09:38:25.945Z,5.83
2023-04-28T09:40:58.118Z,4.97
2023-04-28T09:43:35.092Z,5.10
2023-04-28T09:46:04.297Z,5.07
2023-04-28T09:48:35.948Z,5.00
2023-04-28T09:51:04.295Z,5.17
2023-04-28T09:53:32.061Z,5.20
2023-04-28T09:56:00.945Z,5.50
2023-04-28T09:58:29.344Z,4.10
2023-04-28T10:00:57.914Z,4.30
2023-04-28T10:03:29.386Z,3.87
2023-04-28T10:05:57.419Z,3.30
2023-04-28T10:08:25.708Z,3.03
2023-04-28T10:10:54.720Z,2.80
2023-04-28T10:13:22.991Z,2.20
2023-04-28T10:15:51.038Z,2.10
2023-04-28T10:18:18.580Z,2.00
2023-04-28T10:20:47.457Z,1.93
2023-04-28T10:23:19.035Z,1.80
2023-04-28T10:25:48.012Z,1.53
2023-04-28T10:28:16.229Z,1.50
2023-04-28T10:30:43.631Z,1.40
2023-04-28T10:33:16.057Z,1.20
2023-04-28T10:35:44.859Z,1.33
2023-04-28T10:38:12.877Z,1.40
2023-04-28T10:40:46.593Z,1.20
2023-04-28T10:43:27.788Z,1.20
2023-04-28T10:45:57.984Z,1.40
2023-04-28T10:48:37.311Z,1.40
2023-04-28T10:51:13.502Z,1.10
2023-04-28T10:53:45.449Z,1.30
2023-04-28T10:56:21.285Z,1.37
2023-04-28T10:58:50.635Z,1.37
2023-04-28T11:01:23.922Z,1.30
2023-04-28T11:04:06.683Z,1.40
2023-04-28T11:06:36.025Z,1.50
2023-04-28T11:09:04.532Z,1.30
2023-04-28T11:11:38.882Z,1.50
2023-04-28T11:14:20.034Z,3.83
2023-04-28T11:16:49.199Z,8.00
2023-04-28T11:19:18.178Z,10.00
2023-04-28T11:21:45.491Z,9.07
2023-04-28T11:24:12.874Z,7.80
2023-04-28T11:26:41.145Z,9.10
2023-04-28T11:29:09.051Z,7.47
2023-04-28T11:31:36.458Z,7.27
2023-04-28T11:34:05.526Z,9.47
2023-04-28T11:36:35.314Z,8.63
2023-04-28T11:39:04.811Z,8.03
2023-04-28T11:41:32.277Z,6.60
2023-04-28T11:43:59.653Z,7.50
2023-04-28T11:46:27.376Z,7.30
2023-04-28T11:49:02.216Z,6.30
2023-04-28T11:51:36.643Z,5.77
2023-04-28T11:54:04.562Z,5.63
2023-04-28T11:56:31.945Z,5.73
2023-04-28T11:59:04.315Z,6.20
2023-04-28T12:01:32.354Z,6.50
2023-04-28T12:03:59.876Z,3.47
2023-04-28T12:06:28.320Z,3.10
2023-04-28T12:08:55.750Z,3.70
2023-04-28T12:11:24.958Z,4.67
2023-04-28T12:14:04.612Z,5.83
2023-04-28T12:16:39.593Z,7.27
2023-04-28T12:19:08.618Z,6.97
2023-04-28T12:21:38.090Z,8.60
2023-04-28T12:24:15.281Z,7.53
2023-04-28T12:26:42.671Z,6.53
2023-04-28T12:29:13.545Z,5.03
2023-04-28T12:31:52.646Z,5.20
2023-04-28T12:34:19.983Z,6.00
2023-04-28T12:36:47.636Z,6.80
2023-04-28T12:39:16.277Z,6.23
2023-04-28T12:41:44.523Z,6.13
2023-04-28T12:44:11.902Z,6.30
2023-04-28T12:46:39.317Z,6.67
2023-04-28T12:49:07.260Z,6.00
2023-04-28T12:51:36.545Z,6.53
2023-04-28T12:54:04.739Z,5.67
2023-04-28T12:56:32.114Z,6.20
2023-04-28T12:58:59.507Z,5.03
2023-04-28T13:01:27.262Z,4.63
2023-04-28T13:03:54.829Z,4.27
2023-04-28T13:06:22.316Z,5.30
2023-04-28T13:08:49.704Z,5.57
2023-04-28T13:11:22.865Z,5.97
2023-04-28T13:13:46.085Z,4.87
2023-04-28T13:16:14.501Z,5.40
2023-04-28T13:18:41.888Z,4.10
2023-04-28T13:21:09.183Z,4.67
2023-04-28T13:23:36.570Z,5.73
2023-04-28T13:26:04.236Z,5.40
2023-04-28T13:28:31.634Z,5.17
2023-04-28T13:30:59.001Z,5.03
2023-04-28T13:33:28.027Z,4.97
2023-04-28T13:35:55.665Z,4.10
2023-04-28T13:38:23.120Z,4.33
2023-04-28T13:40:50.485Z,4.80
2023-04-28T13:43:17.895Z,5.47
2023-04-28T13:45:45.295Z,5.60
2023-04-28T13:48:12.758Z,5.63
2023-04-28T13:50:40.287Z,5.70
2023-04-28T13:53:08.147Z,5.73
2023-04-28T13:55:35.591Z,6.70
2023-04-28T13:58:04.663Z,6.43
2023-04-28T14:00:32.502Z,7.57
2023-04-28T14:03:00.574Z,8.60
2023-04-28T14:05:29.777Z,9.30
2023-04-28T14:07:57.106Z,8.20
2023-04-28T14:10:24.478Z,8.90
2023-04-28T14:12:51.891Z,9.20
2023-04-28T14:15:19.623Z,9.00
2023-04-28T14:17:47.097Z,7.80
2023-04-28T14:20:14.493Z,8.33
2023-04-28T14:22:41.871Z,8.40
2023-04-28T14:25:09.531Z,8.00
2023-04-28T14:27:36.980Z,6.70
2023-04-28T14:30:04.924Z,6.23
2023-04-28T14:32:32.389Z,6.20
2023-04-28T14:35:01.124Z,5.53
2023-04-28T14:37:28.543Z,6.03
2023-04-28T14:39:56.179Z,4.93
2023-04-28T14:42:25.147Z,5.43
2023-04-28T14:44:54.478Z,6.60
2023-04-28T14:47:21.427Z,6.10
2023-04-28T14:49:48.918Z,6.20
2023-04-28T14:52:16.461Z,5.53
2023-04-28T14:54:44.343Z,5.57
2023-04-28T14:57:11.709Z,5.63
2023-04-28T14:59:39.089Z,5.80
2023-04-28T15:02:07.570Z,6.60
2023-04-28T15:04:34.998Z,6.50
2023-04-28T15:07:02.345Z,6.30
2023-04-28T15:09:30.670Z,5.93
2023-04-28T15:11:58.044Z,7.30
2023-04-28T15:14:25.508Z,5.83
2023-04-28T15:16:52.952Z,5.87
2023-04-28T15:19:20.397Z,6.10
2023-04-28T15:21:47.992Z,6.20
2023-04-28T15:24:15.805Z,6.00
2023-04-28T15:26:43.179Z,6.33
2023-04-28T15:29:11.074Z,7.30
2023-04-28T15:31:39.901Z,6.73
2023-04-28T15:34:07.606Z,8.27
2023-04-28T15:36:40.111Z,7.30
2023-04-28T15:39:07.423Z,7.17
2023-04-28T15:41:35.626Z,7.97
2023-04-28T15:44:04.664Z,8.47
2023-04-28T15:46:32.290Z,8.50
2023-04-28T15:48:59.834Z,8.70
2023-04-28T15:51:27.204Z,8.03
2023-04-28T15:53:55.716Z,9.97
2023-04-28T15:56:23.670Z,10.77
2023-04-28T15:58:51.329Z,10.07
2023-04-28T16:01:18.752Z,10.83
2023-04-28T16:03:48.123Z,10.80
2023-04-28T16:06:15.320Z,10.17
2023-04-28T16:08:42.887Z,8.60
2023-04-28T16:11:12.863Z,9.10
2023-04-28T16:13:40.188Z,10.33
2023-04-28T16:16:09.162Z,9.83
2023-04-28T16:18:36.699Z,9.83
2023-04-28T16:21:04.154Z,11.10
2023-04-28T16:23:31.481Z,9.90
2023-04-28T16:25:58.845Z,8.53
2023-04-28T16:28:27.908Z,8.30
2023-04-28T16:30:55.739Z,7.23
2023-04-28T16:33:23.115Z,7.13
2023-04-28T16:35:59.498Z,7.70
2023-04-28T16:38:26.804Z,7.97
2023-04-28T16:40:54.225Z,7.57
2023-04-28T16:43:21.655Z,7.63
2023-04-28T16:45:49.335Z,9.03
2023-04-28T16:48:17.040Z,7.30
2023-04-28T16:50:44.489Z,7.33
2023-04-28T16:53:11.864Z,7.47
2023-04-28T16:55:39.252Z,7.63
2023-04-28T16:58:07.294Z,7.43
2023-04-28T17:00:34.670Z,6.80
2023-04-28T17:03:02.292Z,6.13
2023-04-28T17:05:29.726Z,6.30
2023-04-28T17:07:57.713Z,6.17
2023-04-28T17:10:26.535Z,6.83
2023-04-28T17:12:53.908Z,6.43
2023-04-28T17:15:21.395Z,6.40
2023-04-28T17:17:49.663Z,6.40
2023-04-28T17:20:18.960Z,8.20
2023-04-28T17:22:47.229Z,8.50
2023-04-28T17:25:15.748Z,9.30
2023-04-28T17:27:43.356Z,7.97
2023-04-28T17:30:14.168Z,9.30
2023-04-28T17:32:42.112Z,8.70
2023-04-28T17:35:09.681Z,8.37
2023-04-28T17:37:37.059Z,8.30
2023-04-28T17:40:04.519Z,7.50
2023-04-28T17:42:31.924Z,8.07
2023-04-28T17:44:59.455Z,7.57
2023-04-28T17:47:27.609Z,6.80
2023-04-28T17:49:55.250Z,5.27
2023-04-28T17:52:22.794Z,4.30
2023-04-28T17:54:50.307Z,3.73
2023-04-28T17:57:18.118Z,5.10
2023-04-28T17:59:46.875Z,4.43
2023-04-28T18:02:14.314Z,4.27
2023-04-28T18:04:41.768Z,4.47
2023-04-28T18:07:09.188Z,4.03
2023-04-28T18:09:36.573Z,3.97
2023-04-28T18:12:04.391Z,3.77
2023-04-28T18:14:31.849Z,4.77
2023-04-28T18:16:59.473Z,4.60
2023-04-28T18:19:27.894Z,5.00
2023-04-28T18:21:56.737Z,4.43
2023-04-28T18:24:27.164Z,4.70
2023-04-28T18:26:54.609Z,3.67
2023-04-28T18:29:21.919Z,2.90
2023-04-28T18:31:49.362Z,3.63
2023-04-28T18:34:17.818Z,6.60
2023-04-28T18:36:45.203Z,4.97
2023-04-28T18:39:12.570Z,5.20
2023-04-28T18:41:40.033Z,3.90
2023-04-28T18:44:07.388Z,3.83
2023-04-28T18:46:34.967Z,3.67
2023-04-28T18:49:03.383Z,3.47
2023-04-28T18:51:30.944Z,3.83
2023-04-28T18:53:58.322Z,3.40
2023-04-28T18:56:25.753Z,3.00
2023-04-28T18:58:53.144Z,2.50
2023-04-28T19:01:20.937Z,2.80
2023-04-28T19:03:49.441Z,2.37
2023-04-28T19:06:17.310Z,2.80
2023-04-28T19:08:44.702Z,2.73
2023-04-28T19:11:12.084Z,2.30
2023-04-28T19:13:39.760Z,2.50
2023-04-28T19:16:07.143Z,2.47
2023-04-28T19:18:34.619Z,2.60
2023-04-28T19:21:03.515Z,2.73
2023-04-28T19:23:31.523Z,2.40
2023-04-28T19:25:59.772Z,2.40
2023-04-28T19:28:28.520Z,2.50
2023-04-28T19:30:57.563Z,3.67
2023-04-28T19:33:27.993Z,2.90
2023-04-28T19:35:54.740Z,4.07
2023-04-28T19:38:22.983Z,5.00
2023-04-28T19:40:53.575Z,4.10
2023-04-28T19:43:21.324Z,5.60
2023-04-28T19:45:48.711Z,5.73
2023-04-28T19:48:16.102Z,5.77
2023-04-28T19:50:43.462Z,5.70
2023-04-28T19:53:10.784Z,5.50
2023-04-28T19:55:38.163Z,4.63
2023-04-28T19:58:06.807Z,4.50
2023-04-28T20:00:34.450Z,4.60
2023-04-28T20:03:02.454Z,4.33
2023-04-28T20:05:30.347Z,4.67
2023-04-28T20:07:57.804Z,4.90
2023-04-28T20:10:25.321Z,4.73
2023-04-28T20:12:54.299Z,4.00
2023-04-28T20:15:21.763Z,4.37
2023-04-28T20:17:49.255Z,4.73
2023-04-28T20:20:16.576Z,4.40
2023-04-28T20:22:43.957Z,4.80
2023-04-28T20:25:12.424Z,5.27
2023-04-28T20:27:39.805Z,4.20
2023-04-28T20:30:08.169Z,4.40
2023-04-28T20:32:36.461Z,5.13
2023-04-28T20:35:05.490Z,4.53
2023-04-28T20:37:33.148Z,4.80
2023-04-28T20:40:00.529Z,5.93
2023-04-28T20:42:27.987Z,5.70
2023-04-28T20:44:55.346Z,5.03
2023-04-28T20:47:22.671Z,5.17
2023-04-28T20:49:50.262Z,5.20
2023-04-28T20:52:18.212Z,4.77
2023-04-28T20:54:46.766Z,4.30
2023-04-28T20:57:14.163Z,5.10
2023-04-28T20:59:41.556Z,4.80
2023-04-28T21:02:09.010Z,4.40
2023-04-28T21:04:36.481Z,4.50
2023-04-28T21:07:03.973Z,4.80
2023-04-28T21:09:31.344Z,4.70
2023-04-28T21:11:58.675Z,4.90
2023-04-28T21:14:26.049Z,4.90
2023-04-28T21:16:53.586Z,4.30
2023-04-28T21:19:20.970Z,4.37
2023-04-28T21:21:48.352Z,4.77
2023-04-28T21:24:15.812Z,4.43
2023-04-28T21:26:43.494Z,4.30
2023-04-28T21:29:11.148Z,3.60
2023-04-28T21:31:38.635Z,4.37
2023-04-28T21:34:06.466Z,4.20
2023-04-28T21:36:34.286Z,3.70
2023-04-28T21:39:03.377Z,4.17
2023-04-28T21:41:30.803Z,3.97
2023-04-28T21:43:59.286Z,3.97
2023-04-28T21:46:26.835Z,4.00
2023-04-28T21:48:55.425Z,3.40
2023-04-28T21:51:22.797Z,3.87
2023-04-28T21:53:50.188Z,4.20
2023-04-28T21:56:17.553Z,3.70
2023-04-28T21:58:45.046Z,3.03
2023-04-28T22:01:15.152Z,2.80
2023-04-28T22:03:42.684Z,4.20
2023-04-28T22:06:10.418Z,3.60
2023-04-28T22:08:37.939Z,3.23
2023-04-28T22:11:06.783Z,3.30
2023-04-28T22:13:34.123Z,4.37
2023-04-28T22:16:01.780Z,3.60
2023-04-28T22:18:29.833Z,3.50
2023-04-28T22:20:57.201Z,3.33
2023-04-28T22:23:24.691Z,3.10
2023-04-28T22:25:52.047Z,3.27
2023-04-28T22:28:19.425Z,3.30
2023-04-28T22:30:47.496Z,2.77
2023-04-28T22:33:14.932Z,3.23
2023-04-28T22:35:42.303Z,2.90
2023-04-28T22:38:09.742Z,2.70
2023-04-28T22:40:37.392Z,3.03
2023-04-28T22:43:04.761Z,3.43
2023-04-28T22:45:32.138Z,2.67
2023-04-28T22:47:59.737Z,2.67
2023-04-28T22:50:28.642Z,3.23
2023-04-28T22:52:57.120Z,3.40
2023-04-28T22:55:24.532Z,3.10
2023-04-28T22:57:51.873Z,3.50
2023-04-28T23:00:19.322Z,3.00
2023-04-28T23:02:47.060Z,2.90
2023-04-28T23:05:14.554Z,2.80
2023-04-28T23:07:41.928Z,2.83
2023-04-28T23:10:11.178Z,2.63
2023-04-28T23:12:39.352Z,2.30
2023-04-28T23:15:07.253Z,2.50
2023-04-28T23:17:34.666Z,2.50
2023-04-28T23:20:02.013Z,2.50
2023-04-28T23:22:29.440Z,2.20
2023-04-28T23:24:56.838Z,2.83
2023-04-28T23:27:24.211Z,3.00
2023-04-28T23:29:51.952Z,2.40
2023-04-28T23:32:20.135Z,2.60
2023-04-28T23:34:47.796Z,2.80
2023-04-28T23:37:15.246Z,2.20
2023-04-28T23:39:42.615Z,2.20
2023-04-28T23:42:10.168Z,2.37
2023-04-28T23:44:37.805Z,2.77
2023-04-28T23:47:05.109Z,2.53
2023-04-28T23:49:32.486Z,2.20
2023-04-28T23:51:59.881Z,2.33
2023-04-28T23:54:27.244Z,2.50
2023-04-28T23:56:54.707Z,2.00
2023-04-28T23:59:22.075Z,2.53
